Time;durP1;ratioP1;P1;durP2;ratioP2;P2;SDS_P1;SDS_P2;PMS_P1;PMS_P2;Temp;Humidity;BMP_temperature;BMP_pressure;BME280_temperature;BME280_humidity;BME280_pressure;Samples;Min_cycle;Max_cycle;Signal;HPM_P1;HPM_P2
2021/08/21 00:00:05;;;;;;;5.60;3.20;;;20.20;85.40;;;;;;5030762;28;20025;-68
2021/08/21 00:02:32;;;;;;;7.35;3.72;;;20.10;85.40;;;;;;5035511;28;20120;-68
2021/08/21 00:04:58;;;;;;;6.38;3.58;;;20.10;85.30;;;;;;5030574;28;20020;-67
2021/08/21 00:07:23;;;;;;;5.53;3.30;;;20.10;85.20;;;;;;5026976;28;20092;-67
2021/08/21 00:09:49;;;;;;;5.10;3.00;;;20.10;85.20;;;;;;5038204;28;20020;-67
2021/08/21 00:12:14;;;;;;;5.68;3.10;;;20.10;85.40;;;;;;5040308;28;20425;-67
2021/08/21 00:14:40;;;;;;;6.13;3.47;;;20.10;85.40;;;;;;5025269;28;20021;-67
2021/08/21 00:17:05;;;;;;;6.93;3.47;;;20.10;85.40;;;;;;5038269;28;20091;-67
2021/08/21 00:19:31;;;;;;;5.45;3.30;;;20.10;85.40;;;;;;5040827;28;20025;-66
2021/08/21 00:21:57;;;;;;;5.53;3.08;;;20.10;85.30;;;;;;5037119;28;20029;-67
2021/08/21 00:24:22;;;;;;;5.55;3.15;;;20.10;85.10;;;;;;5031068;28;20367;-66
2021/08/21 00:26:48;;;;;;;5.85;3.53;;;20.10;85.30;;;;;;5034769;28;20064;-66
2021/08/21 00:29:13;;;;;;;5.97;3.20;;;20.10;85.30;;;;;;5041851;28;20048;-66
2021/08/21 00:31:39;;;;;;;5.70;3.30;;;20.00;85.30;;;;;;5029436;28;20068;-67
2021/08/21 00:34:04;;;;;;;5.60;3.20;;;20.00;85.50;;;;;;5035334;28;20704;-67
2021/08/21 00:36:30;;;;;;;6.70;3.80;;;20.00;85.40;;;;;;5028216;28;20654;-66
2021/08/21 00:38:56;;;;;;;6.28;3.60;;;20.00;85.40;;;;;;5024548;28;20601;-67
2021/08/21 00:41:21;;;;;;;9.55;4.25;;;20.00;85.90;;;;;;5036309;28;20112;-66
2021/08/21 00:43:47;;;;;;;7.63;3.83;;;20.00;85.40;;;;;;5034416;28;20128;-67
2021/08/21 00:46:13;;;;;;;7.22;4.30;;;20.00;85.60;;;;;;5045194;28;20104;-65
2021/08/21 00:48:38;;;;;;;6.93;4.38;;;20.00;85.60;;;;;;5025444;28;20057;-66
2021/08/21 00:51:04;;;;;;;7.20;4.38;;;20.00;85.70;;;;;;5028161;28;20390;-65
2021/08/21 00:53:32;;;;;;;7.57;4.63;;;20.00;85.70;;;;;;5038671;28;20029;-65
2021/08/21 00:55:59;;;;;;;7.22;4.35;;;20.00;85.80;;;;;;5031066;28;20104;-67
2021/08/21 00:58:25;;;;;;;7.30;4.50;;;19.90;85.80;;;;;;5038872;28;20055;-66
2021/08/21 01:00:52;;;;;;;7.50;4.80;;;19.90;85.80;;;;;;5038068;28;20033;-66
2021/08/21 01:03:18;;;;;;;8.40;5.03;;;19.90;85.80;;;;;;5035063;28;20036;-66
2021/08/21 01:05:44;;;;;;;7.25;4.75;;;19.90;85.80;;;;;;5035626;28;20029;-67
2021/08/21 01:08:10;;;;;;;7.90;4.72;;;19.90;85.80;;;;;;5034908;28;20025;-67
2021/08/21 01:10:35;;;;;;;9.35;5.25;;;19.90;85.90;;;;;;5033928;28;20037;-66
2021/08/21 01:13:01;;;;;;;7.82;5.15;;;19.90;85.90;;;;;;5036292;28;20029;-65
2021/08/21 01:15:27;;;;;;;9.00;5.90;;;19.80;85.90;;;;;;5025222;28;20029;-66
2021/08/21 01:17:53;;;;;;;9.85;5.05;;;19.90;86.00;;;;;;5034800;28;20038;-66
2021/08/21 01:20:19;;;;;;;8.13;5.43;;;19.90;86.00;;;;;;5025845;28;20036;-68
2021/08/21 01:22:45;;;;;;;8.25;5.03;;;19.90;86.00;;;;;;5032238;28;20025;-67
2021/08/21 01:25:17;;;;;;;7.65;4.95;;;19.90;86.00;;;;;;5029426;28;20536;-68
2021/08/21 01:27:43;;;;;;;8.13;5.10;;;19.90;86.00;;;;;;5025542;28;20108;-67
2021/08/21 01:30:09;;;;;;;8.57;5.40;;;19.90;86.10;;;;;;5039877;28;20074;-67
2021/08/21 01:32:36;;;;;;;8.07;5.25;;;19.90;86.10;;;;;;5036736;28;20091;-67
2021/08/21 01:35:02;;;;;;;7.63;4.88;;;19.90;86.20;;;;;;5030206;28;20029;-67
2021/08/21 01:37:28;;;;;;;8.45;5.07;;;19.90;86.30;;;;;;5035558;28;20036;-66
2021/08/21 01:39:56;;;;;;;8.02;4.85;;;19.90;86.20;;;;;;5039481;28;20029;-67
2021/08/21 01:42:23;;;;;;;8.15;5.35;;;19.80;86.10;;;;;;5032050;28;20033;-66
2021/08/21 01:44:49;;;;;;;8.93;4.78;;;19.80;86.20;;;;;;5024807;28;20025;-67
2021/08/21 01:47:17;;;;;;;7.40;4.50;;;19.80;86.30;;;;;;5023239;28;20482;-67
2021/08/21 01:49:43;;;;;;;8.30;5.40;;;19.80;86.30;;;;;;5024604;28;20033;-67
2021/08/21 01:52:10;;;;;;;8.43;5.40;;;19.80;86.30;;;;;;5022900;28;20030;-67
2021/08/21 01:54:35;;;;;;;7.90;5.35;;;19.80;86.30;;;;;;5024804;28;20022;-66
2021/08/21 01:57:04;;;;;;;7.47;4.88;;;19.80;86.30;;;;;;5024300;28;20029;-64
2021/08/21 01:59:41;;;;;;;8.32;5.03;;;19.80;86.40;;;;;;5023236;28;20393;-67
2021/08/21 02:02:09;;;;;;;7.22;4.65;;;19.80;86.30;;;;;;5023375;28;20095;-67
2021/08/21 02:04:35;;;;;;;7.93;5.25;;;19.80;86.30;;;;;;5023120;28;20385;-67
2021/08/21 02:07:00;;;;;;;8.82;5.32;;;19.70;86.30;;;;;;5023163;28;20116;-68
2021/08/21 02:09:27;;;;;;;8.32;5.43;;;19.80;86.40;;;;;;5023906;28;20061;-65
2021/08/21 02:11:56;;;;;;;8.38;5.25;;;19.80;86.30;;;;;;5027897;28;20083;-67
2021/08/21 02:14:23;;;;;;;9.15;5.47;;;19.80;86.40;;;;;;5026703;28;20033;-66
2021/08/21 02:16:52;;;;;;;8.48;5.10;;;19.80;86.40;;;;;;5026680;28;20144;-66
2021/08/21 02:19:18;;;;;;;8.45;5.50;;;19.80;86.50;;;;;;5027902;28;20029;-66
2021/08/21 02:21:44;;;;;;;7.63;4.65;;;19.70;86.40;;;;;;5027791;28;20021;-66
2021/08/21 02:24:11;;;;;;;9.23;5.30;;;19.70;86.50;;;;;;5027623;28;20116;-66
2021/08/21 02:26:41;;;;;;;6.60;3.92;;;19.70;86.50;;;;;;5027731;28;20032;-66
2021/08/21 02:29:07;;;;;;;7.30;4.38;;;19.70;86.50;;;;;;5026711;28;20029;-66
2021/08/21 02:31:33;;;;;;;6.85;4.10;;;19.70;86.40;;;;;;5026012;28;20294;-66
2021/08/21 02:33:59;;;;;;;7.88;4.68;;;19.70;86.40;;;;;;5026473;28;20116;-66
2021/08/21 02:36:25;;;;;;;7.38;4.35;;;19.70;86.50;;;;;;5030574;28;20039;-66
2021/08/21 02:38:50;;;;;;;8.75;5.05;;;19.70;86.50;;;;;;5038522;28;20086;-67
2021/08/21 02:41:16;;;;;;;7.88;4.38;;;19.70;86.60;;;;;;5046921;28;20029;-68
2021/08/21 02:43:42;;;;;;;8.18;4.80;;;19.70;86.50;;;;;;5047612;28;20028;-67
2021/08/21 02:46:07;;;;;;;8.25;4.30;;;19.70;86.50;;;;;;5046120;28;20031;-67
2021/08/21 02:48:33;;;;;;;8.52;4.63;;;19.70;86.50;;;;;;5047484;28;20037;-67
2021/08/21 02:50:58;;;;;;;9.27;4.72;;;19.70;86.50;;;;;;5046183;28;20025;-67
2021/08/21 02:53:24;;;;;;;7.13;4.30;;;19.70;86.50;;;;;;5046925;28;20033;-67
2021/08/21 02:55:50;;;;;;;6.93;4.20;;;19.70;86.50;;;;;;5046186;28;20052;-67
2021/08/21 02:58:15;;;;;;;6.95;3.95;;;19.70;86.50;;;;;;5045583;28;20035;-66
2021/08/21 03:00:41;;;;;;;7.15;4.03;;;19.70;86.60;;;;;;5045741;28;20063;-67
2021/08/21 03:03:07;;;;;;;7.28;4.43;;;19.70;86.50;;;;;;5045459;28;20033;-67
2021/08/21 03:05:33;;;;;;;6.53;4.10;;;19.70;86.50;;;;;;5045857;28;20827;-66
2021/08/21 03:07:59;;;;;;;6.82;4.18;;;19.70;86.60;;;;;;5046950;28;20037;-67
2021/08/21 03:10:25;;;;;;;7.00;3.90;;;19.70;86.70;;;;;;5045354;28;20434;-66
2021/08/21 03:12:50;;;;;;;6.28;3.83;;;19.70;86.70;;;;;;5046969;28;20904;-65
2021/08/21 03:15:16;;;;;;;7.45;4.07;;;19.70;86.70;;;;;;5047074;28;20072;-68
2021/08/21 03:17:41;;;;;;;6.90;4.20;;;19.60;86.70;;;;;;5045490;28;20033;-66
2021/08/21 03:20:07;;;;;;;6.28;4.00;;;19.70;86.80;;;;;;5046627;28;20043;-67
2021/08/21 03:22:34;;;;;;;6.25;3.90;;;19.60;86.70;;;;;;5046872;28;20029;-67
2021/08/21 03:24:59;;;;;;;7.68;4.18;;;19.60;86.60;;;;;;5038879;28;20014;-66
2021/08/21 03:27:25;;;;;;;6.03;3.92;;;19.60;86.60;;;;;;5026906;28;20506;-67
2021/08/21 03:29:50;;;;;;;6.38;4.10;;;19.60;86.70;;;;;;5025297;28;20024;-66
2021/08/21 03:32:16;;;;;;;6.88;4.05;;;19.60;86.70;;;;;;5026672;28;20486;-66
2021/08/21 03:34:43;;;;;;;7.00;4.15;;;19.60;86.70;;;;;;5026905;28;20057;-65
2021/08/21 03:37:09;;;;;;;7.43;4.38;;;19.60;86.60;;;;;;5026568;28;20079;-67
2021/08/21 03:39:35;;;;;;;6.60;4.30;;;19.60;86.70;;;;;;5025016;28;20032;-66
2021/08/21 03:42:00;;;;;;;6.97;4.57;;;19.60;86.70;;;;;;5026396;28;20018;-67
2021/08/21 03:44:26;;;;;;;7.15;4.75;;;19.60;86.70;;;;;;5025138;28;20071;-66
2021/08/21 03:46:52;;;;;;;7.25;4.47;;;19.60;86.70;;;;;;5026553;28;20040;-66
2021/08/21 03:49:17;;;;;;;7.55;4.70;;;19.60;86.80;;;;;;5024927;28;20040;-68
2021/08/21 03:51:43;;;;;;;8.00;4.47;;;19.60;86.60;;;;;;5026002;28;20044;-66
2021/08/21 03:54:09;;;;;;;7.55;4.63;;;19.60;86.60;;;;;;5024760;28;20399;-66
2021/08/21 03:56:34;;;;;;;8.07;4.60;;;19.60;86.60;;;;;;5025135;28;20083;-67
2021/08/21 03:59:00;;;;;;;6.63;4.22;;;19.60;86.60;;;;;;5024937;28;20116;-68
2021/08/21 04:01:25;;;;;;;6.60;4.45;;;19.60;86.60;;;;;;5026030;28;20033;-67
2021/08/21 04:03:51;;;;;;;6.80;4.13;;;19.60;86.70;;;;;;5025970;28;20038;-66
2021/08/21 04:06:19;;;;;;;6.57;4.05;;;19.60;86.70;;;;;;5025711;28;20503;-66
2021/08/21 04:08:44;;;;;;;6.85;3.97;;;19.60;86.80;;;;;;5026119;28;20374;-67
2021/08/21 04:11:10;;;;;;;7.57;4.35;;;19.60;86.80;;;;;;5024292;28;20530;-67
2021/08/21 04:13:35;;;;;;;6.43;3.60;;;19.60;86.90;;;;;;5024537;28;20036;-66
2021/08/21 04:16:02;;;;;;;7.43;4.10;;;19.60;86.90;;;;;;5025538;28;20057;-67
2021/08/21 04:18:28;;;;;;;7.85;4.70;;;19.60;87.00;;;;;;5033797;28;20031;-67
2021/08/21 04:20:53;;;;;;;7.43;4.47;;;19.60;87.10;;;;;;5032637;28;20116;-66
2021/08/21 04:23:19;;;;;;;8.05;4.68;;;19.60;87.10;;;;;;5045580;28;20052;-66
2021/08/21 04:25:44;;;;;;;7.93;4.90;;;19.60;87.10;;;;;;5031426;28;20030;-66
2021/08/21 04:28:10;;;;;;;7.63;4.45;;;19.60;87.10;;;;;;5028947;28;20030;-67
2021/08/21 04:30:35;;;;;;;8.63;4.70;;;19.60;87.20;;;;;;5030591;28;20068;-67
2021/08/21 04:33:01;;;;;;;7.50;4.57;;;19.60;87.80;;;;;;5029575;28;20057;-66
2021/08/21 04:35:26;;;;;;;9.02;4.85;;;19.60;87.30;;;;;;5024973;28;20030;-67
2021/08/21 04:37:52;;;;;;;7.85;4.60;;;19.60;87.40;;;;;;5039798;28;20024;-66
2021/08/21 04:40:20;;;;;;;8.07;4.97;;;19.60;87.40;;;;;;5042612;28;20064;-67
2021/08/21 04:42:46;;;;;;;6.93;4.22;;;19.60;87.30;;;;;;5045310;28;20025;-67
2021/08/21 04:45:12;;;;;;;8.10;4.18;;;19.60;87.40;;;;;;5045313;28;20032;-67
2021/08/21 04:47:38;;;;;;;7.22;4.35;;;19.60;87.40;;;;;;5045496;28;20025;-67
2021/08/21 04:50:05;;;;;;;7.88;4.60;;;19.60;87.50;;;;;;5039572;28;20895;-67
2021/08/21 04:52:30;;;;;;;6.72;3.63;;;19.60;87.50;;;;;;5030151;28;20029;-67
2021/08/21 04:54:56;;;;;;;7.15;3.85;;;19.60;87.60;;;;;;5034764;28;20588;-66
2021/08/21 04:57:22;;;;;;;6.28;3.60;;;19.60;87.60;;;;;;5041594;28;20095;-66
2021/08/21 04:59:48;;;;;;;6.80;4.60;;;19.60;87.70;;;;;;5045115;28;20033;-67
2021/08/21 05:02:13;;;;;;;7.63;4.15;;;19.60;87.70;;;;;;5037404;28;20029;-66
2021/08/21 05:04:39;;;;;;;6.72;4.28;;;19.60;87.80;;;;;;5044652;28;20025;-66
2021/08/21 05:07:05;;;;;;;6.97;4.38;;;19.60;87.70;;;;;;5043536;28;20115;-67
2021/08/21 05:09:31;;;;;;;8.00;4.60;;;19.60;87.80;;;;;;5043677;28;20616;-66
2021/08/21 05:11:56;;;;;;;7.28;4.35;;;19.60;87.80;;;;;;5043567;28;20406;-66
2021/08/21 05:14:22;;;;;;;7.50;4.28;;;19.60;87.80;;;;;;5044076;28;20041;-67
2021/08/21 05:16:47;;;;;;;8.65;4.30;;;19.60;87.90;;;;;;5043392;28;20033;-66
2021/08/21 05:19:34;;;;;;;8.02;4.32;;;19.60;87.90;;;;;;5044673;28;20025;-66
2021/08/21 05:24:43;;;;;;;8.77;4.03;;;19.70;87.90;;;;;;5039155;28;20056;-65
2021/08/21 05:27:09;;;;;;;6.45;3.47;;;19.70;87.90;;;;;;5024781;28;20499;-67
2021/08/21 05:29:35;;;;;;;8.63;4.38;;;19.70;87.80;;;;;;5024839;28;20168;-67
2021/08/21 05:32:01;;;;;;;7.35;4.22;;;19.70;87.80;;;;;;5031891;28;20036;-65
2021/08/21 05:34:27;;;;;;;8.10;4.45;;;19.70;87.70;;;;;;5028653;28;20041;-67
2021/08/21 05:36:52;;;;;;;7.28;3.85;;;19.70;87.60;;;;;;5044709;28;20071;-68
2021/08/21 05:39:18;;;;;;;7.60;3.78;;;19.80;87.50;;;;;;5045083;28;20057;-66
2021/08/21 05:41:43;;;;;;;8.13;5.07;;;19.80;87.50;;;;;;5043502;28;20078;-67
2021/08/21 05:44:09;;;;;;;7.95;4.90;;;19.90;87.40;;;;;;5045297;28;20082;-65
2021/08/21 05:46:34;;;;;;;7.13;3.90;;;19.90;87.30;;;;;;5046789;28;20399;-66
2021/08/21 05:49:00;;;;;;;7.97;4.57;;;19.90;87.10;;;;;;5048777;28;20036;-66
2021/08/21 05:51:28;;;;;;;8.48;4.85;;;20.00;86.90;;;;;;5041580;28;20036;-67
2021/08/21 05:53:54;;;;;;;7.95;4.40;;;20.00;86.70;;;;;;5037010;28;20063;-67
2021/08/21 05:56:19;;;;;;;7.53;3.78;;;20.00;86.60;;;;;;5036764;28;20060;-67
2021/08/21 05:58:45;;;;;;;7.25;3.83;;;20.00;86.60;;;;;;5035014;28;20526;-67
2021/08/21 06:01:10;;;;;;;6.60;3.67;;;19.90;86.50;;;;;;5032773;28;20021;-65
2021/08/21 06:03:36;;;;;;;6.93;4.10;;;20.00;86.60;;;;;;5046325;28;20063;-67
2021/08/21 06:06:01;;;;;;;7.50;3.55;;;20.00;86.50;;;;;;5047516;28;20029;-67
2021/08/21 06:08:27;;;;;;;7.97;3.38;;;20.00;86.30;;;;;;5036257;28;20029;-67
2021/08/21 06:10:55;;;;;;;9.13;4.13;;;20.00;86.50;;;;;;5035269;28;20399;-66
2021/08/21 06:13:20;;;;;;;7.03;3.70;;;20.00;86.50;;;;;;5049846;28;20591;-67
2021/08/21 06:15:46;;;;;;;8.35;3.92;;;20.00;86.30;;;;;;5046245;28;20490;-67
2021/08/21 06:18:11;;;;;;;11.43;5.00;;;20.00;86.10;;;;;;5028309;28;20506;-67
2021/08/21 06:20:37;;;;;;;6.95;4.43;;;20.20;85.70;;;;;;5031728;28;20048;-67
2021/08/21 06:23:03;;;;;;;8.45;4.65;;;20.30;85.00;;;;;;5046149;28;20055;-69
2021/08/21 06:25:28;;;;;;;12.63;5.32;;;20.40;84.40;;;;;;5036755;28;20588;-68
2021/08/21 06:27:54;;;;;;;10.70;4.22;;;20.50;83.70;;;;;;5026076;28;20029;-67
2021/08/21 06:30:19;;;;;;;8.57;4.72;;;20.60;83.30;;;;;;5026874;28;20022;-67
2021/08/21 06:32:45;;;;;;;11.32;5.45;;;20.70;82.90;;;;;;5031312;28;20037;-69
2021/08/21 06:35:11;;;;;;;8.98;4.97;;;20.70;82.40;;;;;;5035742;28;20029;-67
2021/08/21 06:37:36;;;;;;;8.57;4.45;;;20.80;82.20;;;;;;5026770;28;20116;-66
2021/08/21 06:40:03;;;;;;;7.57;4.47;;;20.80;81.80;;;;;;5045499;28;20033;-67
2021/08/21 06:42:28;;;;;;;8.15;3.97;;;20.90;81.60;;;;;;5046130;28;20029;-65
2021/08/21 06:44:54;;;;;;;8.18;4.32;;;21.00;81.30;;;;;;5045721;28;20036;-68
2021/08/21 06:47:19;;;;;;;8.55;4.40;;;21.00;81.00;;;;;;5046787;28;20036;-68
2021/08/21 06:49:45;;;;;;;24.08;7.15;;;21.10;80.80;;;;;;5042753;28;20042;-68
2021/08/21 06:52:11;;;;;;;11.10;6.35;;;21.10;81.50;;;;;;5043315;28;20099;-70
2021/08/21 06:54:36;;;;;;;13.25;7.47;;;21.20;81.70;;;;;;5038234;28;20032;-69
2021/08/21 06:57:02;;;;;;;14.80;7.28;;;21.20;81.90;;;;;;5048411;28;20047;-70
2021/08/21 06:59:28;;;;;;;10.82;6.93;;;21.30;81.50;;;;;;5034525;28;20034;-67
2021/08/21 07:01:53;;;;;;;12.32;6.78;;;21.30;81.30;;;;;;5032301;28;20055;-69
2021/08/21 07:04:19;;;;;;;11.68;6.40;;;21.40;81.00;;;;;;5032707;28;20037;-67
2021/08/21 07:06:44;;;;;;;10.20;5.40;;;21.40;80.60;;;;;;5032870;28;20060;-67
2021/08/21 07:09:10;;;;;;;11.55;5.40;;;21.50;80.20;;;;;;5025859;28;20079;-70
2021/08/21 07:11:35;;;;;;;13.15;6.93;;;21.50;80.10;;;;;;5052738;28;20029;-67
2021/08/21 07:14:01;;;;;;;12.05;6.97;;;21.50;80.00;;;;;;5052663;28;20673;-68
2021/08/21 07:16:26;;;;;;;25.33;7.03;;;21.50;80.40;;;;;;5042017;28;20553;-65
2021/08/21 07:18:52;;;;;;;11.88;6.22;;;21.50;80.60;;;;;;5042590;28;20025;-66
2021/08/21 07:21:18;;;;;;;9.05;4.95;;;21.50;79.80;;;;;;5044969;28;20083;-66
2021/08/21 07:23:44;;;;;;;9.40;5.35;;;21.50;79.80;;;;;;5037155;28;20025;-67
2021/08/21 07:26:09;;;;;;;9.35;4.88;;;21.40;79.70;;;;;;5029984;28;20090;-66
2021/08/21 07:28:35;;;;;;;9.80;5.07;;;21.40;79.70;;;;;;5033333;28;20032;-67
2021/08/21 07:31:01;;;;;;;13.60;5.93;;;21.40;79.70;;;;;;5037831;28;20513;-66
2021/08/21 07:33:28;;;;;;;13.18;5.30;;;21.40;80.00;;;;;;5035834;28;20491;-67
2021/08/21 07:35:54;;;;;;;12.43;5.25;;;21.40;80.20;;;;;;5028409;28;20053;-66
2021/08/21 07:38:19;;;;;;;12.20;5.97;;;21.40;80.60;;;;;;5026873;28;20879;-67
2021/08/21 07:40:45;;;;;;;10.95;5.75;;;21.40;80.60;;;;;;5028220;28;20017;-67
2021/08/21 07:43:10;;;;;;;9.25;4.60;;;21.40;80.50;;;;;;5026145;28;20045;-67
2021/08/21 07:45:36;;;;;;;8.68;4.50;;;21.40;80.10;;;;;;5029879;28;20040;-66
2021/08/21 07:48:02;;;;;;;11.00;4.55;;;21.50;79.90;;;;;;5026424;28;20061;-68
2021/08/21 07:50:27;;;;;;;8.80;4.88;;;21.50;79.20;;;;;;5026855;28;20040;-66
2021/08/21 07:52:53;;;;;;;8.18;4.22;;;21.50;79.10;;;;;;5030272;28;20068;-67
2021/08/21 07:55:18;;;;;;;9.57;4.00;;;21.60;79.50;;;;;;5033353;28;20037;-66
2021/08/21 07:57:44;;;;;;;8.85;4.32;;;21.50;79.10;;;;;;5037835;28;20119;-67
2021/08/21 08:00:10;;;;;;;9.90;4.82;;;21.50;78.90;;;;;;5036859;28;20116;-67
2021/08/21 08:02:35;;;;;;;7.38;3.80;;;21.60;79.10;;;;;;5024673;28;20125;-67
2021/08/21 08:05:01;;;;;;;7.70;3.80;;;21.60;79.00;;;;;;5024719;28;20132;-67
2021/08/21 08:07:27;;;;;;;8.75;4.43;;;21.60;78.90;;;;;;5034521;28;20486;-66
2021/08/21 08:09:52;;;;;;;8.10;4.00;;;21.50;79.00;;;;;;5028805;28;20042;-65
2021/08/21 08:12:18;;;;;;;9.70;4.13;;;21.60;79.10;;;;;;5025361;28;20621;-67
2021/08/21 08:14:43;;;;;;;8.25;4.03;;;21.60;78.90;;;;;;5026099;28;20033;-67
2021/08/21 08:17:09;;;;;;;7.28;3.45;;;21.60;78.70;;;;;;5026561;28;20033;-68
2021/08/21 08:19:34;;;;;;;8.20;3.20;;;21.60;78.50;;;;;;5025822;28;20034;-67
2021/08/21 08:22:00;;;;;;;10.23;4.53;;;21.60;78.50;;;;;;5026403;28;20031;-67
2021/08/21 08:24:26;;;;;;;8.82;3.95;;;21.60;78.70;;;;;;5031656;28;20109;-68
2021/08/21 08:26:52;;;;;;;9.18;3.83;;;21.60;78.40;;;;;;5029135;28;20067;-66
2021/08/21 08:29:17;;;;;;;8.88;3.85;;;21.60;78.30;;;;;;5028880;28;20033;-67
2021/08/21 08:31:43;;;;;;;10.85;3.90;;;21.70;78.30;;;;;;5042022;28;20036;-67
2021/08/21 08:34:08;;;;;;;10.85;3.70;;;21.70;78.20;;;;;;5042745;28;20028;-67
2021/08/21 08:36:34;;;;;;;9.63;3.40;;;21.60;78.10;;;;;;5038065;28;20029;-67
2021/08/21 08:38:59;;;;;;;12.23;3.75;;;21.70;78.20;;;;;;5031678;28;20367;-67
2021/08/21 08:41:25;;;;;;;6.63;3.15;;;21.70;78.30;;;;;;5029505;28;20382;-68
2021/08/21 08:43:51;;;;;;;8.10;3.33;;;21.70;78.00;;;;;;5028112;28;20036;-68
2021/08/21 08:46:21;;;;;;;12.07;3.70;;;21.70;78.00;;;;;;5027892;28;20030;-67
2021/08/21 08:48:47;;;;;;;8.55;3.88;;;21.70;77.80;;;;;;5026306;28;20036;-67
2021/08/21 08:51:14;;;;;;;9.13;3.80;;;21.70;77.70;;;;;;5032154;28;20041;-67
2021/08/21 08:53:40;;;;;;;15.02;5.15;;;21.80;77.90;;;;;;5023462;28;20056;-66
2021/08/21 08:56:05;;;;;;;9.77;4.40;;;21.90;78.50;;;;;;5026796;28;20886;-71
2021/08/21 08:58:31;;;;;;;9.57;4.88;;;21.90;78.40;;;;;;5032504;28;20048;-66
2021/08/21 09:00:57;;;;;;;15.88;8.07;;;21.90;78.20;;;;;;5033190;28;20025;-67
2021/08/21 09:03:25;;;;;;;15.18;10.23;;;21.90;79.80;;;;;;5042159;28;20029;-67
2021/08/21 09:05:52;;;;;;;15.98;10.13;;;21.90;80.80;;;;;;5045536;28;20552;-68
2021/08/21 09:08:26;;;;;;;15.00;9.20;;;21.90;81.00;;;;;;5045068;28;20083;-68
2021/08/21 09:10:51;;;;;;;12.55;6.40;;;21.90;81.50;;;;;;5034356;28;20041;-69
2021/08/21 09:13:18;;;;;;;12.70;8.60;;;21.90;79.80;;;;;;5023769;28;20034;-69
2021/08/21 09:15:45;;;;;;;15.82;8.02;;;21.90;80.60;;;;;;5025099;28;20026;-69
2021/08/21 09:18:14;;;;;;;13.20;7.57;;;21.90;80.50;;;;;;5026367;28;20033;-69
2021/08/21 09:20:48;;;;;;;15.38;7.18;;;22.00;79.80;;;;;;5031228;28;20021;-68
2021/08/21 09:23:41;;;;;;;14.77;8.60;;;22.10;79.40;;;;;;5031409;28;20025;-67
2021/08/21 09:26:36;;;;;;;14.80;9.40;;;22.10;79.80;;;;;;5031451;28;20025;-68
2021/08/21 09:29:03;;;;;;;18.15;9.15;;;22.20;80.30;;;;;;5029746;28;20189;-67
2021/08/21 09:31:31;;;;;;;15.20;8.80;;;22.20;79.70;;;;;;5026444;28;20364;-69
2021/08/21 09:34:04;;;;;;;19.52;8.55;;;22.20;80.10;;;;;;5035754;28;20066;-67
2021/08/21 09:36:41;;;;;;;19.92;8.77;;;22.20;79.40;;;;;;5030565;28;20454;-67
2021/08/21 09:39:08;;;;;;;19.70;10.60;;;22.20;80.10;;;;;;5044060;28;20021;-68
2021/08/21 09:41:54;;;;;;;16.90;10.55;;;22.10;80.30;;;;;;5049419;28;20057;-69
2021/08/21 09:44:28;;;;;;;16.52;10.02;;;22.10;80.70;;;;;;5051416;28;20025;-67
2021/08/21 09:47:24;;;;;;;17.45;8.52;;;22.10;80.00;;;;;;5051148;28;20039;-69
2021/08/21 09:49:51;;;;;;;12.65;8.15;;;22.30;79.30;;;;;;5044592;28;20041;-68
2021/08/21 09:52:18;;;;;;;16.55;8.15;;;22.30;79.00;;;;;;5030729;28;20407;-67
2021/08/21 09:55:05;;;;;;;13.35;7.75;;;22.30;78.90;;;;;;5031609;28;20043;-67
2021/08/21 09:57:31;;;;;;;13.00;7.63;;;22.30;78.80;;;;;;5030376;28;20040;-68
2021/08/21 10:00:00;;;;;;;15.02;7.90;;;22.30;78.60;;;;;;5029666;28;20028;-67
2021/08/21 10:02:28;;;;;;;11.68;7.32;;;22.40;78.50;;;;;;5031829;28;20574;-71
2021/08/21 10:04:54;;;;;;;15.18;7.05;;;22.40;78.70;;;;;;5040821;28;20028;-68
2021/08/21 10:07:23;;;;;;;14.13;7.53;;;22.40;78.90;;;;;;5042297;28;20036;-69
2021/08/21 10:09:52;;;;;;;12.85;7.50;;;22.40;78.80;;;;;;5048756;28;20036;-71
2021/08/21 10:12:20;;;;;;;12.93;8.07;;;22.60;77.50;;;;;;5051834;28;20094;-71
2021/08/21 10:14:47;;;;;;;13.60;7.45;;;22.60;76.50;;;;;;5052194;28;20024;-71
2021/08/21 10:17:17;;;;;;;15.13;6.80;;;22.60;77.00;;;;;;5051672;28;20032;-69
2021/08/21 10:19:44;;;;;;;11.43;6.40;;;22.80;76.30;;;;;;5051740;28;20596;-71
2021/08/21 10:22:10;;;;;;;13.13;6.35;;;22.90;75.80;;;;;;5051963;28;20505;-70
2021/08/21 10:24:38;;;;;;;11.18;6.50;;;23.00;76.10;;;;;;5047297;28;20025;-70
2021/08/21 10:27:35;;;;;;;13.32;7.13;;;23.00;74.50;;;;;;5032148;28;20505;-72
2021/08/21 10:30:20;;;;;;;12.30;6.57;;;23.00;73.90;;;;;;5030304;28;20037;-71
2021/08/21 10:33:00;;;;;;;13.57;6.32;;;23.10;74.80;;;;;;5028332;28;20086;-68
2021/08/21 10:35:46;;;;;;;11.73;5.93;;;23.00;75.10;;;;;;5028531;28;20052;-66
2021/08/21 10:38:33;;;;;;;10.95;5.93;;;23.00;75.30;;;;;;5031342;28;20037;-67
2021/08/21 10:41:25;;;;;;;18.33;6.15;;;23.00;75.20;;;;;;5027759;28;20104;-67
2021/08/21 10:43:53;;;;;;;13.25;6.40;;;23.00;75.30;;;;;;5024410;28;20060;-67
2021/08/21 10:46:30;;;;;;;19.30;5.80;;;22.90;73.60;;;;;;5029165;28;20145;-67
2021/08/21 10:48:58;;;;;;;17.30;6.60;;;22.90;74.90;;;;;;5039755;28;20056;-69
2021/08/21 10:51:36;;;;;;;16.70;5.35;;;22.90;74.10;;;;;;5036802;28;20126;-68
2021/08/21 10:54:24;;;;;;;15.93;5.75;;;23.00;74.50;;;;;;5033278;28;20443;-69
2021/08/21 10:56:50;;;;;;;12.50;5.20;;;23.00;74.30;;;;;;5026250;28;20037;-67
2021/08/21 10:59:40;;;;;;;11.80;5.90;;;23.00;74.50;;;;;;5044040;28;20398;-68
2021/08/21 11:02:20;;;;;;;15.87;6.00;;;22.90;74.30;;;;;;5026032;28;20554;-69
2021/08/21 11:04:46;;;;;;;14.93;6.03;;;23.00;74.30;;;;;;5027981;28;20302;-67
2021/08/21 11:07:31;;;;;;;11.00;5.95;;;23.00;73.50;;;;;;5027752;28;20041;-69
2021/08/21 11:10:16;;;;;;;11.35;5.10;;;23.10;73.40;;;;;;5027253;28;20029;-68
2021/08/21 11:12:45;;;;;;;19.20;5.93;;;23.10;73.30;;;;;;5027128;28;20075;-66
2021/08/21 11:15:20;;;;;;;10.85;4.65;;;23.10;74.00;;;;;;5027143;28;20155;-67
2021/08/21 11:17:46;;;;;;;13.38;5.35;;;23.20;73.90;;;;;;5032076;28;20478;-67
2021/08/21 11:20:34;;;;;;;12.48;4.97;;;23.10;73.60;;;;;;5045646;28;20505;-67
2021/08/21 11:23:08;;;;;;;13.23;5.03;;;23.20;73.90;;;;;;5038328;28;20144;-67
2021/08/21 11:25:43;;;;;;;8.75;4.80;;;23.20;73.50;;;;;;5027276;28;20038;-68
2021/08/21 11:28:22;;;;;;;8.00;4.47;;;23.20;73.90;;;;;;5045763;28;20522;-67
2021/08/21 11:31:09;;;;;;;9.18;4.68;;;23.20;73.20;;;;;;5038170;28;20033;-66
2021/08/21 11:33:38;;;;;;;8.50;5.22;;;23.20;73.10;;;;;;5026101;28;20022;-66
2021/08/21 11:36:04;;;;;;;9.77;5.68;;;23.10;73.10;;;;;;5024279;28;20570;-69
2021/08/21 11:38:31;;;;;;;7.90;5.00;;;23.20;72.90;;;;;;5025983;28;20033;-67
2021/08/21 11:40:59;;;;;;;13.35;5.65;;;23.30;73.00;;;;;;5031527;28;20025;-69
2021/08/21 11:43:28;;;;;;;9.85;5.90;;;23.30;72.90;;;;;;5028483;28;20022;-68
2021/08/21 11:45:56;;;;;;;9.95;6.45;;;23.30;72.50;;;;;;5038468;28;20071;-68
2021/08/21 11:48:36;;;;;;;9.55;6.40;;;23.30;71.30;;;;;;5034492;28;20025;-69
2021/08/21 11:51:04;;;;;;;10.10;6.10;;;23.30;70.50;;;;;;5038760;28;20036;-68
2021/08/21 11:53:34;;;;;;;10.88;5.82;;;23.20;70.30;;;;;;5040899;28;20057;-67
2021/08/21 11:56:01;;;;;;;8.70;5.43;;;23.20;71.40;;;;;;5036410;28;20412;-71
2021/08/21 11:58:28;;;;;;;10.30;5.32;;;23.20;71.80;;;;;;5027925;28;20445;-67
2021/08/21 12:00:55;;;;;;;10.95;4.93;;;23.30;72.30;;;;;;5039650;28;20024;-68
2021/08/21 12:03:34;;;;;;;7.88;5.10;;;23.30;72.70;;;;;;5040007;28;20040;-68
2021/08/21 12:06:00;;;;;;;8.07;5.35;;;23.30;70.20;;;;;;5051760;28;20071;-70
2021/08/21 12:08:27;;;;;;;11.85;5.68;;;23.30;69.60;;;;;;5060650;28;20029;-69
2021/08/21 12:10:57;;;;;;;10.48;4.97;;;23.30;70.50;;;;;;5054846;28;20289;-67
2021/08/21 12:13:33;;;;;;;9.98;4.63;;;23.30;70.50;;;;;;5036023;28;20095;-68
2021/08/21 12:16:07;;;;;;;12.25;5.10;;;23.30;70.80;;;;;;5046406;28;20459;-70
2021/08/21 12:18:34;;;;;;;9.57;4.22;;;23.30;70.60;;;;;;5046821;28;20480;-68
2021/08/21 12:21:01;;;;;;;12.77;4.50;;;23.30;71.70;;;;;;5047487;28;20017;-71
2021/08/21 12:23:27;;;;;;;8.18;4.28;;;23.30;71.80;;;;;;5038760;28;20072;-70
2021/08/21 12:25:56;;;;;;;12.27;4.55;;;23.40;73.20;;;;;;5026213;28;20562;-66
2021/08/21 12:28:25;;;;;;;13.20;4.38;;;23.40;73.10;;;;;;5034443;28;20268;-69
2021/08/21 12:31:05;;;;;;;12.52;4.43;;;23.30;73.30;;;;;;5035282;28;20545;-66
2021/08/21 12:33:40;;;;;;;14.27;4.05;;;23.30;73.60;;;;;;5037339;28;20383;-68
2021/08/21 12:36:09;;;;;;;10.18;4.03;;;23.30;73.30;;;;;;5043616;28;20033;-68
2021/08/21 12:38:35;;;;;;;11.05;4.10;;;23.30;73.20;;;;;;5044015;28;20072;-68
2021/08/21 12:41:04;;;;;;;9.07;4.13;;;23.30;73.40;;;;;;5044024;28;20021;-67
2021/08/21 12:43:29;;;;;;;8.38;3.45;;;23.30;73.90;;;;;;5044923;28;20398;-68
2021/08/21 12:45:55;;;;;;;10.30;4.45;;;23.30;74.30;;;;;;5043646;28;20028;-68
2021/08/21 12:48:24;;;;;;;6.45;3.03;;;23.30;73.80;;;;;;5043478;28;20037;-67